Time;durP1;ratioP1;P1;durP2;ratioP2;P2;SDS_P1;SDS_P2;PMS_P1;PMS_P2;Temp;Humidity;BMP_temperature;BMP_pressure;BME280_temperature;BME280_humidity;BME280_pressure;Samples;Min_cycle;Max_cycle;Signal;HPM_P1;HPM_P2
2023/05/02 00:01:20;;;;;;;7.65;4.80;;;;;;;13.10;nan;100650.69;4917296;29;20048;-71
2023/05/02 00:03:45;;;;;;;7.35;4.95;;;;;;;13.00;nan;100647.84;4920023;29;20059;-70
2023/05/02 00:06:11;;;;;;;9.82;4.95;;;;;;;12.92;nan;100632.34;4921371;29;20050;-71
2023/05/02 00:08:37;;;;;;;10.07;5.30;;;;;;;12.86;nan;100638.59;4920245;29;20027;-71
2023/05/02 00:11:02;;;;;;;8.07;4.93;;;;;;;12.84;nan;100636.16;4924840;29;20136;-71
2023/05/02 00:13:28;;;;;;;7.97;5.18;;;;;;;12.77;nan;100632.84;4930265;29;20039;-71
2023/05/02 00:15:53;;;;;;;8.60;5.05;;;;;;;12.74;nan;100628.03;4925432;29;20023;-71
2023/05/02 00:18:18;;;;;;;7.82;4.72;;;;;;;12.72;nan;100635.38;4924763;29;20032;-71
2023/05/02 00:20:44;;;;;;;7.30;4.90;;;;;;;12.69;nan;100626.09;4925880;29;20132;-71
2023/05/02 00:23:11;;;;;;;6.60;4.78;;;;;;;12.77;nan;100635.50;4923010;29;20080;-72
2023/05/02 00:25:36;;;;;;;10.35;5.18;;;;;;;12.70;nan;100627.69;4920833;29;20176;-70
2023/05/02 00:28:01;;;;;;;7.95;4.72;;;;;;;12.69;nan;100631.38;4922255;29;20123;-71
2023/05/02 00:30:27;;;;;;;6.70;4.93;;;;;;;12.68;nan;100634.25;4925885;29;20039;-71
2023/05/02 00:32:53;;;;;;;6.95;4.90;;;;;;;12.65;nan;100640.00;4926466;29;20047;-70
2023/05/02 00:35:18;;;;;;;8.73;4.72;;;;;;;12.57;nan;100641.16;4932398;29;20533;-76
2023/05/02 00:37:43;;;;;;;8.32;4.75;;;;;;;12.58;nan;100650.69;4925234;29;20110;-74
2023/05/02 00:40:09;;;;;;;9.40;4.82;;;;;;;12.24;nan;100605.59;4921908;29;20062;-74
2023/05/02 00:42:35;;;;;;;6.97;4.32;;;;;;;12.39;nan;100636.81;4922241;29;20215;-76
2023/05/02 00:45:02;;;;;;;7.10;4.70;;;;;;;12.39;nan;100647.38;4937079;29;20031;-76
2023/05/02 00:47:28;;;;;;;7.20;4.72;;;;;;;12.38;nan;100650.22;4945925;29;20042;-77
2023/05/02 00:49:53;;;;;;;7.60;4.95;;;;;;;12.36;nan;100647.84;4941688;29;20036;-76
2023/05/02 00:52:19;;;;;;;8.07;4.70;;;;;;;12.34;nan;100641.97;4945762;29;20382;-76
2023/05/02 00:54:46;;;;;;;7.30;4.38;;;;;;;12.31;nan;100634.53;4945986;29;20733;-77
2023/05/02 00:57:11;;;;;;;5.80;4.28;;;;;;;12.31;nan;100640.59;4940387;29;20042;-76
2023/05/02 00:59:37;;;;;;;12.25;4.85;;;;;;;12.30;nan;100635.53;4942949;29;20059;-75
2023/05/02 01:02:06;;;;;;;7.50;4.63;;;;;;;12.39;nan;100649.22;4947938;29;20031;-75
2023/05/02 01:04:49;;;;;;;7.68;4.68;;;;;;;12.22;nan;100633.25;4947566;29;20050;-76
2023/05/02 01:07:32;;;;;;;10.60;5.18;;;;;;;12.37;nan;100648.63;4948823;29;20031;-75
2023/05/02 01:10:20;;;;;;;10.48;5.32;;;;;;;12.29;nan;100647.16;4945385;29;20066;-75
2023/05/02 01:13:13;;;;;;;6.53;4.60;;;;;;;12.30;nan;100656.66;4931771;29;20506;-76
2023/05/02 01:15:41;;;;;;;8.82;4.97;;;;;;;12.29;nan;100652.44;4925622;29;20032;-76
2023/05/02 01:18:09;;;;;;;7.95;4.85;;;;;;;12.16;nan;100645.53;4940318;29;20028;-77
2023/05/02 01:20:40;;;;;;;7.03;4.80;;;;;;;12.17;nan;100656.91;4926290;29;20119;-76
2023/05/02 01:23:13;;;;;;;12.75;5.75;;;;;;;12.07;nan;100655.63;4928078;29;20035;-76
2023/05/02 01:25:47;;;;;;;8.10;4.70;;;;;;;12.13;nan;100656.53;4926907;29;20035;-76
2023/05/02 01:28:30;;;;;;;6.22;4.80;;;;;;;12.11;nan;100655.97;4922149;29;20494;-76
2023/05/02 01:30:57;;;;;;;8.93;4.78;;;;;;;12.02;nan;100652.06;4924459;29;20036;-76
2023/05/02 01:33:25;;;;;;;6.07;4.53;;;;;;;12.03;nan;100654.47;4928752;29;20490;-78
2023/05/02 01:35:52;;;;;;;8.65;5.35;;;;;;;11.95;nan;100644.25;4933890;29;20071;-76
2023/05/02 01:38:19;;;;;;;8.70;4.80;;;;;;;11.96;nan;100658.25;4924719;29;20099;-75
2023/05/02 01:40:46;;;;;;;7.90;4.30;;;;;;;11.94;nan;100655.03;4926438;29;20470;-77
2023/05/02 01:43:14;;;;;;;7.68;4.78;;;;;;;11.75;nan;100651.63;4931204;29;20076;-76
2023/05/02 01:45:42;;;;;;;11.48;4.55;;;;;;;11.76;nan;100661.19;4923718;29;20032;-76
2023/05/02 01:48:09;;;;;;;6.38;4.30;;;;;;;11.69;nan;100664.72;4922665;29;20062;-72
2023/05/02 01:50:37;;;;;;;10.63;4.60;;;;;;;11.64;nan;100655.88;4938970;28;20036;-72
2023/05/02 01:53:03;;;;;;;8.65;4.35;;;;;;;11.56;nan;100649.06;4922259;29;20079;-72
2023/05/02 01:55:32;;;;;;;11.23;5.13;;;;;;;11.58;nan;100665.47;4922323;29;20261;-73
2023/05/02 01:57:59;;;;;;;6.97;4.43;;;;;;;11.51;nan;100664.75;4923336;29;20630;-73
2023/05/02 02:00:25;;;;;;;9.07;5.15;;;;;;;11.47;nan;100663.63;4925122;29;20207;-72
2023/05/02 02:02:52;;;;;;;9.30;5.13;;;;;;;11.47;nan;100664.41;4921670;29;20763;-73
2023/05/02 02:05:19;;;;;;;7.28;4.88;;;;;;;11.36;nan;100659.09;4922425;29;20114;-70
2023/05/02 02:07:45;;;;;;;8.70;4.70;;;;;;;11.33;nan;100672.72;4923064;29;20170;-71
2023/05/02 02:10:11;;;;;;;9.65;4.88;;;;;;;11.30;nan;100666.06;4928953;29;20119;-72
2023/05/02 02:13:06;;;;;;;6.18;4.55;;;;;;;11.36;nan;100667.81;4936926;28;20035;-71
2023/05/02 02:15:38;;;;;;;7.57;4.57;;;;;;;11.45;nan;100674.38;4921944;28;20127;-71
2023/05/02 02:18:20;;;;;;;7.07;4.32;;;;;;;11.45;nan;100676.22;4921557;29;20090;-71
2023/05/02 02:20:47;;;;;;;11.45;4.45;;;;;;;11.42;nan;100679.28;4923676;29;20016;-71
2023/05/02 02:23:14;;;;;;;10.82;4.97;;;;;;;11.31;nan;100682.69;4919301;29;20027;-70
2023/05/02 02:25:41;;;;;;;7.43;4.82;;;;;;;11.23;nan;100676.69;4922227;29;20392;-72
2023/05/02 02:28:07;;;;;;;8.43;4.75;;;;;;;11.09;nan;100672.63;4923415;29;20066;-72
2023/05/02 02:30:32;;;;;;;6.65;4.50;;;;;;;11.05;nan;100679.34;4923604;29;20089;-71
2023/05/02 02:32:57;;;;;;;12.30;5.35;;;;;;;10.94;nan;100672.16;4918610;29;20032;-72
2023/05/02 02:35:43;;;;;;;7.82;5.13;;;;;;;10.87;nan;100664.38;4923449;29;20043;-71
2023/05/02 02:38:37;;;;;;;8.63;4.88;;;;;;;10.88;nan;100680.97;4921842;29;20043;-72
2023/05/02 02:41:17;;;;;;;7.95;4.95;;;;;;;10.85;nan;100680.38;4923537;29;20390;-72
2023/05/02 02:43:59;;;;;;;10.35;4.78;;;;;;;10.84;nan;100681.38;4927604;29;20082;-72
2023/05/02 02:46:40;;;;;;;9.25;4.93;;;;;;;10.79;nan;100670.72;4920575;29;20024;-72
2023/05/02 02:49:26;;;;;;;7.07;4.90;;;;;;;10.85;nan;100676.94;4919301;29;20056;-72
2023/05/02 02:52:14;;;;;;;8.60;5.07;;;;;;;10.83;nan;100669.25;4923521;29;20063;-73
2023/05/02 02:55:05;;;;;;;8.20;5.38;;;;;;;10.82;nan;100666.81;4917514;29;20545;-72
2023/05/02 02:57:46;;;;;;;8.15;5.20;;;;;;;10.79;nan;100660.16;4922892;29;20036;-72
2023/05/02 03:00:21;;;;;;;7.82;4.88;;;;;;;10.85;nan;100669.03;4922307;29;20138;-73
2023/05/02 03:02:47;;;;;;;8.85;4.93;;;;;;;10.78;nan;100649.88;4923082;29;20028;-72
2023/05/02 03:05:14;;;;;;;8.30;5.25;;;;;;;10.88;nan;100667.81;4920886;29;20052;-70
2023/05/02 03:07:39;;;;;;;11.38;5.88;;;;;;;10.90;nan;100671.03;4918384;29;20045;-72
2023/05/02 03:10:06;;;;;;;7.53;5.13;;;;;;;10.84;nan;100657.69;4920635;29;20032;-72
2023/05/02 03:12:31;;;;;;;9.32;5.25;;;;;;;10.94;nan;100673.00;4918239;29;20184;-74
2023/05/02 03:15:05;;;;;;;12.43;5.50;;;;;;;10.92;nan;100668.94;4923482;29;20134;-74
2023/05/02 03:17:30;;;;;;;14.65;6.30;;;;;;;10.88;nan;100662.53;4927275;29;20048;-73
2023/05/02 03:19:56;;;;;;;7.80;5.28;;;;;;;10.86;nan;100671.44;4928767;29;20367;-73
2023/05/02 03:22:21;;;;;;;10.05;5.70;;;;;;;10.90;nan;100674.47;4920453;29;20028;-73
2023/05/02 03:24:47;;;;;;;7.40;5.25;;;;;;;10.89;nan;100670.19;4920979;29;20027;-73
2023/05/02 03:27:12;;;;;;;9.35;5.50;;;;;;;10.89;nan;100669.41;4922008;29;20027;-77
2023/05/02 03:29:37;;;;;;;8.75;5.25;;;;;;;10.88;nan;100673.06;4926767;29;20114;-77
2023/05/02 03:32:03;;;;;;;9.07;5.68;;;;;;;10.85;nan;100663.78;4935509;28;20194;-76
2023/05/02 03:34:28;;;;;;;9.43;5.28;;;;;;;10.81;nan;100666.03;4925060;29;20114;-75
2023/05/02 03:36:53;;;;;;;12.05;5.78;;;;;;;10.56;nan;100634.50;4942805;29;20028;-76
2023/05/02 03:39:19;;;;;;;9.15;5.53;;;;;;;10.78;nan;100674.38;4940799;29;20115;-76
2023/05/02 03:41:45;;;;;;;11.15;5.53;;;;;;;10.69;nan;100659.88;4935584;29;20032;-77
2023/05/02 03:44:10;;;;;;;9.45;5.57;;;;;;;10.77;nan;100667.47;4928193;29;20035;-77
2023/05/02 03:46:36;;;;;;;10.10;5.95;;;;;;;10.85;nan;100679.59;4933024;29;20043;-75
2023/05/02 03:49:01;;;;;;;10.73;5.50;;;;;;;10.83;nan;100674.53;4947659;29;20036;-75
2023/05/02 03:51:26;;;;;;;9.15;6.05;;;;;;;10.86;nan;100679.34;4949851;29;20034;-76
2023/05/02 03:53:52;;;;;;;10.18;5.90;;;;;;;10.90;nan;100679.72;4952400;29;20035;-76
2023/05/02 03:56:20;;;;;;;14.07;5.95;;;;;;;10.86;nan;100676.72;4946551;29;20027;-74
2023/05/02 03:58:47;;;;;;;9.52;6.03;;;;;;;10.96;nan;100683.31;4942467;29;20028;-76
2023/05/02 04:01:16;;;;;;;13.65;5.38;;;;;;;10.97;nan;100684.94;4928951;29;20035;-76
2023/05/02 04:03:41;;;;;;;10.07;6.37;;;;;;;10.86;nan;100668.00;4920895;29;20031;-76
2023/05/02 04:06:07;;;;;;;7.70;5.00;;;;;;;10.85;nan;100666.41;4921204;29;20052;-70
2023/05/02 04:08:33;;;;;;;8.23;5.82;;;;;;;10.90;nan;100668.38;4923331;29;20049;-70
2023/05/02 04:10:58;;;;;;;12.15;5.53;;;;;;;10.92;nan;100671.59;4919973;29;20717;-70
2023/05/02 04:13:24;;;;;;;9.35;5.25;;;;;;;11.00;nan;100666.84;4923037;29;20047;-71
2023/05/02 04:15:49;;;;;;;13.00;5.63;;;;;;;11.06;nan;100683.56;4920708;29;20682;-72
2023/05/02 04:18:15;;;;;;;13.70;5.95;;;;;;;11.10;nan;100684.75;4919209;29;20079;-71
2023/05/02 04:20:43;;;;;;;12.90;5.45;;;;;;;11.15;nan;100682.25;4922848;29;20496;-72
2023/05/02 04:23:08;;;;;;;9.65;5.22;;;;;;;11.11;nan;100672.38;4923477;29;20063;-71
2023/05/02 04:25:33;;;;;;;14.88;5.20;;;;;;;11.24;nan;100686.19;4921409;29;20108;-71
2023/05/02 04:27:59;;;;;;;16.48;5.43;;;;;;;11.31;nan;100688.75;4918580;29;21117;-71
2023/05/02 04:30:25;;;;;;;8.98;5.13;;;;;;;11.35;nan;100679.38;4928059;29;20570;-71
2023/05/02 04:32:51;;;;;;;11.10;5.68;;;;;;;11.40;nan;100684.78;4920281;29;20101;-70
2023/05/02 04:35:16;;;;;;;11.20;5.50;;;;;;;11.42;nan;100672.19;4919507;29;20028;-72
2023/05/02 04:37:42;;;;;;;13.57;5.47;;;;;;;11.56;nan;100687.81;4922541;29;20051;-71
2023/05/02 04:40:08;;;;;;;15.18;5.25;;;;;;;11.58;nan;100681.28;4919337;29;20162;-72
2023/05/02 04:42:33;;;;;;;10.50;5.03;;;;;;;11.80;nan;100691.34;4921351;29;20032;-72
2023/05/02 04:44:59;;;;;;;10.25;5.45;;;;;;;11.80;nan;100684.22;4920570;29;20047;-73
2023/05/02 04:47:24;;;;;;;8.35;5.40;;;;;;;11.95;nan;100693.56;4921031;29;20473;-71
2023/05/02 04:49:50;;;;;;;12.57;5.50;;;;;;;12.01;nan;100690.84;4920842;29;20138;-72
2023/05/02 04:52:15;;;;;;;9.65;4.70;;;;;;;11.99;nan;100682.34;4922108;29;20027;-73
2023/05/02 04:54:40;;;;;;;13.02;5.07;;;;;;;12.18;nan;100692.81;4924226;29;20036;-71
2023/05/02 04:57:06;;;;;;;17.40;5.15;;;;;;;12.18;nan;100692.81;4922563;29;20426;-72
2023/05/02 04:59:32;;;;;;;13.00;5.13;;;;;;;12.31;nan;100687.34;4922262;29;20034;-69
2023/05/02 05:01:58;;;;;;;10.80;4.93;;;;;;;12.41;nan;100697.31;4920794;29;20051;-72
2023/05/02 05:04:23;;;;;;;8.10;4.60;;;;;;;12.50;nan;100690.66;4919064;29;20094;-74
2023/05/02 05:06:49;;;;;;;14.52;5.00;;;;;;;12.64;nan;100696.50;4922762;29;20410;-70
2023/05/02 05:09:15;;;;;;;10.95;4.63;;;;;;;12.73;nan;100682.69;4921613;29;20410;-71
2023/05/02 05:11:42;;;;;;;11.38;4.78;;;;;;;12.81;nan;100684.22;4923079;29;20030;-72
2023/05/02 05:14:08;;;;;;;8.90;5.32;;;;;;;12.97;nan;100699.31;4924867;29;20490;-70
2023/05/02 05:16:34;;;;;;;8.35;4.80;;;;;;;13.06;nan;100697.13;4922617;29;20110;-70
2023/05/02 05:19:00;;;;;;;12.13;4.80;;;;;;;13.04;nan;100675.41;4924894;29;20954;-72
2023/05/02 05:21:26;;;;;;;12.45;5.05;;;;;;;13.17;nan;100684.94;4924618;29;20079;-71
2023/05/02 05:23:52;;;;;;;8.63;4.68;;;;;;;13.33;nan;100689.47;4921735;28;20031;-71
2023/05/02 05:26:17;;;;;;;7.50;4.63;;;;;;;13.42;nan;100694.41;4923272;29;20031;-72
2023/05/02 05:28:43;;;;;;;13.25;4.85;;;;;;;13.52;nan;100702.53;4923398;29;20024;-72
2023/05/02 05:31:11;;;;;;;12.75;5.10;;;;;;;13.64;nan;100702.47;4922717;29;20486;-73
2023/05/02 05:33:38;;;;;;;11.50;4.70;;;;;;;13.68;nan;100701.75;4921272;29;20119;-73
2023/05/02 05:36:09;;;;;;;7.03;4.13;;;;;;;13.74;nan;100700.84;4924686;29;20027;-72
2023/05/02 05:38:35;;;;;;;11.13;4.80;;;;;;;13.85;nan;100711.59;4922122;29;20513;-72
2023/05/02 05:41:01;;;;;;;8.40;4.55;;;;;;;13.94;nan;100708.31;4923059;29;20040;-70
2023/05/02 05:43:27;;;;;;;12.65;4.85;;;;;;;14.02;nan;100705.25;4924163;29;20023;-71
2023/05/02 05:45:54;;;;;;;9.52;4.03;;;;;;;14.15;nan;100704.16;4921257;29;20740;-69
2023/05/02 05:48:19;;;;;;;8.60;4.63;;;;;;;14.23;nan;100713.53;4921862;29;20059;-73
2023/05/02 05:50:45;;;;;;;7.32;3.70;;;;;;;14.11;nan;100681.03;4919703;29;20039;-72
2023/05/02 05:53:11;;;;;;;8.43;4.47;;;;;;;14.41;nan;100709.81;4929192;29;20034;-72
2023/05/02 05:55:37;;;;;;;7.03;3.88;;;;;;;14.44;nan;100704.84;4926172;29;20032;-72
2023/05/02 05:58:03;;;;;;;5.95;4.43;;;;;;;14.45;nan;100701.13;4922054;29;20083;-72
2023/05/02 06:00:29;;;;;;;9.52;3.97;;;;;;;14.62;nan;100710.94;4925524;29;20887;-71
2023/05/02 06:02:54;;;;;;;31.25;5.60;;;;;;;14.60;nan;100676.72;4924228;29;20023;-72
2023/05/02 06:05:20;;;;;;;10.65;4.72;;;;;;;14.88;nan;100706.78;4923268;29;20111;-71
2023/05/02 06:07:45;;;;;;;8.32;3.90;;;;;;;15.04;nan;100705.94;4928161;29;20036;-70
2023/05/02 06:10:11;;;;;;;11.93;4.95;;;;;;;15.19;nan;100693.91;4921318;29;20038;-70
2023/05/02 06:12:36;;;;;;;14.30;4.00;;;;;;;15.38;nan;100705.78;4926668;29;21220;-67
2023/05/02 06:15:02;;;;;;;7.65;4.05;;;;;;;15.52;nan;100712.31;4946304;29;20112;-67
2023/05/02 06:17:27;;;;;;;9.88;4.22;;;;;;;15.57;nan;100697.50;4943935;29;20024;-72
2023/05/02 06:19:52;;;;;;;9.65;3.85;;;;;;;15.80;nan;100704.38;4937516;29;20020;-72
2023/05/02 06:22:18;;;;;;;8.82;3.50;;;;;;;15.88;nan;100693.31;4951077;29;20012;-72
2023/05/02 06:24:43;;;;;;;6.68;4.10;;;;;;;16.03;nan;100693.41;4941713;29;21186;-70
2023/05/02 06:27:09;;;;;;;11.25;3.92;;;;;;;16.13;nan;100690.81;4946663;29;20031;-73
2023/05/02 06:29:34;;;;;;;17.17;4.43;;;;;;;16.16;nan;100687.69;4943973;29;20008;-73
2023/05/02 06:32:00;;;;;;;8.00;3.90;;;;;;;16.37;nan;100685.94;4943148;28;20032;-74
2023/05/02 06:34:25;;;;;;;13.10;4.60;;;;;;;16.56;nan;100696.16;4928012;29;20036;-74
2023/05/02 06:36:55;;;;;;;14.75;3.90;;;;;;;16.67;nan;100692.50;4930870;29;20088;-74
2023/05/02 06:39:21;;;;;;;8.88;3.78;;;;;;;16.80;nan;100685.94;4932071;29;20201;-74
2023/05/02 06:41:47;;;;;;;5.13;3.95;;;;;;;16.94;nan;100678.28;4925874;29;20019;-72
2023/05/02 06:46:57;;;;;;;9.70;3.60;;;;;;;17.35;nan;100678.41;4928016;29;20505;-75
2023/05/02 06:49:22;;;;;;;6.22;3.22;;;;;;;17.57;nan;100678.97;4921472;29;20023;-74
2023/05/02 06:51:47;;;;;;;10.07;3.50;;;;;;;17.55;nan;100649.19;4921888;29;20032;-73
2023/05/02 07:13:22;;;;;;;11.73;2.92;;;;;;;18.95;nan;100694.03;4920397;29;20151;-73
2023/05/02 07:15:47;;;;;;;8.13;2.10;;;;;;;19.07;nan;100691.84;4920845;29;20479;-73
2023/05/02 07:18:12;;;;;;;4.22;1.90;;;;;;;19.10;nan;100698.50;4920526;29;20134;-73
2023/05/02 07:20:40;;;;;;;4.00;2.13;;;;;;;19.33;nan;100697.06;4919665;29;20779;-73
2023/05/02 07:23:05;;;;;;;9.73;2.53;;;;;;;19.35;nan;100689.59;4918363;29;20032;-72
2023/05/02 07:25:31;;;;;;;4.85;2.00;;;;;;;19.42;nan;100702.59;4920010;29;20067;-73
2023/05/02 07:27:56;;;;;;;12.43;2.30;;;;;;;19.38;nan;100698.91;4921023;29;20039;-73
2023/05/02 07:30:22;;;;;;;14.38;2.65;;;;;;;19.33;nan;100671.16;4918661;29;20083;-73
2023/05/02 07:32:47;;;;;;;5.13;2.33;;;;;;;19.74;nan;100705.63;4920397;29;20036;-73
2023/05/02 07:35:13;;;;;;;8.23;2.15;;;;;;;19.83;nan;100713.06;4920509;29;20050;-73
2023/05/02 07:37:38;;;;;;;8.13;2.03;;;;;;;19.93;nan;100699.63;4920989;29;20233;-73
2023/05/02 07:40:04;;;;;;;3.80;2.20;;;;;;;20.02;nan;100707.84;4916456;29;20530;-73
2023/05/02 07:42:30;;;;;;;7.18;2.10;;;;;;;20.05;nan;100709.94;4932064;29;20028;-73
2023/05/02 07:44:57;;;;;;;6.60;1.95;;;;;;;20.04;nan;100716.34;4916793;29;20030;-73
2023/05/02 07:47:23;;;;;;;3.42;1.90;;;;;;;20.08;nan;100712.06;4920139;29;20036;-74
2023/05/02 07:49:52;;;;;;;5.47;2.20;;;;;;;20.07;nan;100708.59;4931382;29;20078;-73
2023/05/02 07:52:18;;;;;;;3.33;2.08;;;;;;;20.15;nan;100712.53;4917106;29;20078;-72
2023/05/02 07:54:44;;;;;;;5.40;2.10;;;;;;;20.19;nan;100722.38;4921901;29;20043;-72
2023/05/02 07:57:11;;;;;;;3.38;1.98;;;;;;;20.22;nan;100713.00;4922365;29;20036;-73
2023/05/02 07:59:36;;;;;;;3.25;2.13;;;;;;;20.29;nan;100718.81;4920227;29;20028;-73
2023/05/02 08:02:01;;;;;;;6.57;2.13;;;;;;;20.34;nan;100720.66;4919984;29;20434;-73
2023/05/02 08:04:27;;;;;;;3.85;1.98;;;;;;;20.30;nan;100706.22;4933708;28;20457;-73
2023/05/02 08:06:54;;;;;;;4.53;2.05;;;;;;;20.45;nan;100721.31;4918761;29;20075;-73
2023/05/02 08:09:19;;;;;;;2.65;1.73;;;;;;;20.47;nan;100717.31;4921434;29;20529;-73
2023/05/02 08:11:45;;;;;;;2.88;2.10;;;;;;;20.48;nan;100708.19;4919900;29;20024;-74
2023/05/02 08:14:10;;;;;;;3.97;2.00;;;;;;;20.63;nan;100722.53;4933580;28;20039;-73
2023/05/02 08:16:36;;;;;;;6.65;1.90;;;;;;;20.64;nan;100719.56;4919997;29;20034;-72
2023/05/02 08:19:01;;;;;;;3.90;2.20;;;;;;;20.71;nan;100717.34;4921296;29;20533;-72
2023/05/02 08:21:27;;;;;;;3.92;1.92;;;;;;;20.76;nan;100714.63;4919179;29;20028;-70
2023/05/02 08:23:57;;;;;;;4.45;1.80;;;;;;;20.89;nan;100728.41;4921265;29;20035;-73
2023/05/02 08:26:23;;;;;;;4.13;1.90;;;;;;;20.93;nan;100721.38;4935820;28;20056;-73
2023/05/02 08:28:51;;;;;;;3.22;1.77;;;;;;;20.97;nan;100723.22;4921095;29;20028;-73
2023/05/02 08:31:17;;;;;;;4.23;2.30;;;;;;;21.03;nan;100726.63;4920706;29;20148;-73
2023/05/02 08:33:43;;;;;;;5.20;2.10;;;;;;;21.04;nan;100722.84;4923283;29;20127;-73
2023/05/02 08:36:13;;;;;;;5.07;1.80;;;;;;;21.13;nan;100725.69;4926897;29;20320;-73
2023/05/02 08:38:38;;;;;;;6.30;2.28;;;;;;;21.10;nan;100723.59;4924550;29;20035;-72
2023/05/02 08:41:18;;;;;;;7.53;2.22;;;;;;;21.23;nan;100730.91;4930242;29;20035;-72
2023/05/02 08:43:45;;;;;;;5.30;2.08;;;;;;;21.22;nan;100724.75;4921154;29;20051;-71
2023/05/02 08:46:13;;;;;;;8.57;2.13;;;;;;;21.32;nan;100731.84;4926049;29;20034;-72
2023/05/02 08:48:43;;;;;;;6.65;2.00;;;;;;;21.21;nan;100650.88;4927481;29;20103;-74
2023/05/02 08:51:11;;;;;;;2.80;1.90;;;;;;;21.31;nan;100652.59;4924264;29;20031;-73
2023/05/02 08:53:38;;;;;;;3.38;1.92;;;;;;;21.31;nan;100700.00;4921939;29;20115;-74
2023/05/02 08:56:03;;;;;;;5.25;2.10;;;;;;;21.36;nan;100603.50;4923665;29;20541;-74
2023/05/02 08:58:31;;;;;;;2.75;1.90;;;;;;;21.33;nan;100620.94;4924465;29;20075;-75
2023/05/02 09:01:04;;;;;;;2.58;2.00;;;;;;;21.42;nan;100701.47;4924900;29;20050;-73
2023/05/02 09:03:32;;;;;;;4.05;1.70;;;;;;;21.49;nan;100669.75;4922751;29;20072;-73
2023/05/02 09:06:11;;;;;;;2.10;1.85;;;;;;;21.53;nan;100676.13;4924812;29;20078;-73
2023/05/02 09:08:37;;;;;;;3.83;2.15;;;;;;;21.56;nan;100664.81;4925640;29;20054;-72
2023/05/02 09:11:04;;;;;;;4.70;2.00;;;;;;;21.55;nan;100773.13;4928570;29;20036;-72
2023/05/02 09:13:30;;;;;;;4.38;1.73;;;;;;;;;;4945651;29;20068;-73
2023/05/02 09:16:01;;;;;;;8.35;2.42;;;;;;;21.69;nan;100657.91;4949043;28;20032;-72
2023/05/02 09:18:29;;;;;;;3.55;1.85;;;;;;;21.72;nan;100678.78;4940766;29;20045;-71
2023/05/02 09:20:56;;;;;;;6.50;1.88;;;;;;;21.71;nan;100666.47;4933690;28;20047;-71
2023/05/02 09:23:32;;;;;;;2.65;1.65;;;;;;;21.75;nan;100675.50;4946921;29;20070;-72
2023/05/02 09:25:58;;;;;;;6.47;2.00;;;;;;;21.79;nan;100670.38;4946009;29;20016;-72
2023/05/02 09:28:44;;;;;;;5.97;1.75;;;;;;;21.84;nan;100660.34;4944779;29;20036;-73
2023/05/02 09:31:13;;;;;;;2.95;1.70;;;;;;;21.84;nan;100672.97;4926582;29;20039;-73
2023/05/02 09:33:39;;;;;;;2.35;1.50;;;;;;;21.88;nan;100672.09;4932539;29;20035;-73
2023/05/02 09:36:09;;;;;;;6.32;2.00;;;;;;;21.87;nan;100661.66;4930288;29;20391;-73
2023/05/02 09:38:34;;;;;;;3.35;1.80;;;;;;;21.88;nan;100666.72;4933883;29;20375;-72
2023/05/02 09:41:02;;;;;;;2.05;1.85;;;;;;;21.95;nan;100681.63;4930339;29;20035;-73
2023/05/02 09:43:27;;;;;;;3.92;1.70;;;;;;;21.97;nan;100637.34;4925876;29;20390;-73
2023/05/02 09:45:57;;;;;;;3.67;1.90;;;;;;;22.05;nan;100682.25;4924710;29;20032;-73
2023/05/02 09:48:23;;;;;;;6.05;1.90;;;;;;;22.15;nan;100702.75;4924906;29;20881;-73
2023/05/02 09:50:48;;;;;;;3.83;2.20;;;;;;;22.28;nan;100660.97;4930713;29;20024;-73
2023/05/02 09:53:14;;;;;;;4.55;1.80;;;;;;;22.30;nan;100651.50;4926132;29;20036;-73
2023/05/02 09:55:39;;;;;;;3.92;1.90;;;;;;;22.40;nan;100649.75;4927964;29;20027;-73
2023/05/02 09:58:05;;;;;;;2.30;1.83;;;;;;;22.44;nan;100623.91;4938499;28;20028;-73
2023/05/02 10:00:41;;;;;;;4.28;1.50;;;;;;;22.48;nan;100644.47;4924440;29;20035;-73
2023/05/02 10:03:10;;;;;;;3.55;1.70;;;;;;;22.49;nan;100654.09;4923496;29;20531;-73
2023/05/02 10:05:37;;;;;;;2.42;1.88;;;;;;;22.43;nan;100697.44;4930625;29;20090;-73
2023/05/02 10:08:05;;;;;;;3.35;2.00;;;;;;;22.45;nan;100695.25;4922984;29;20055;-73
2023/05/02 10:10:33;;;;;;;8.10;1.88;;;;;;;22.44;nan;100705.19;4928288;29;20055;-73
2023/05/02 10:12:59;;;;;;;3.28;1.80;;;;;;;22.52;nan;100626.66;4928153;29;20023;-73
2023/05/02 10:15:28;;;;;;;4.97;2.10;;;;;;;22.59;nan;100638.91;4917421;29;20036;-73
2023/05/02 10:17:57;;;;;;;9.50;2.00;;;;;;;22.58;nan;100656.09;4922790;29;20051;-73
2023/05/02 10:20:29;;;;;;;2.63;1.98;;;;;;;22.65;nan;100651.94;4923365;29;20039;-73
2023/05/02 10:22:57;;;;;;;3.67;2.33;;;;;;;22.69;nan;100638.69;4923950;29;20016;-73
2023/05/02 10:25:22;;;;;;;5.18;2.10;;;;;;;22.77;nan;100629.94;4919968;29;20031;-73
2023/05/02 10:27:48;;;;;;;4.53;1.80;;;;;;;22.83;nan;100639.47;4935198;28;20032;-73
2023/05/02 10:30:15;;;;;;;3.88;1.67;;;;;;;22.89;nan;100640.13;4926605;29;20028;-73
2023/05/02 10:32:41;;;;;;;3.70;2.13;;;;;;;22.89;nan;100649.00;4922917;29;20039;-73
2023/05/02 10:35:07;;;;;;;2.75;1.60;;;;;;;22.93;nan;100643.81;4920933;29;20079;-73
2023/05/02 10:37:36;;;;;;;4.10;1.63;;;;;;;22.94;nan;100686.50;4930623;29;20024;-73
2023/05/02 10:40:02;;;;;;;4.43;1.80;;;;;;;22.92;nan;100677.16;4921981;29;20410;-74
2023/05/02 10:42:27;;;;;;;3.08;1.67;;;;;;;;;;4920856;29;20032;-74
2023/05/02 10:44:53;;;;;;;3.08;1.75;;;;;;;22.96;nan;100645.09;4928198;29;20035;-73
2023/05/02 10:47:20;;;;;;;3.67;1.65;;;;;;;23.01;nan;100635.09;4923980;29;20029;-73
2023/05/02 10:49:52;;;;;;;4.93;1.92;;;;;;;23.09;nan;100628.97;4921355;29;20036;-73
2023/05/02 10:52:35;;;;;;;2.53;1.90;;;;;;;23.11;nan;100701.22;4923991;29;20023;-72
2023/05/02 10:55:16;;;;;;;2.55;2.03;;;;;;;23.20;nan;100655.59;4924571;29;20039;-74
2023/05/02 10:57:57;;;;;;;6.45;2.20;;;;;;;23.22;nan;100632.72;4920953;29;20386;-73
2023/05/02 11:00:28;;;;;;;4.88;2.00;;;;;;;23.24;nan;100643.16;4917216;29;20036;-73
2023/05/02 11:02:54;;;;;;;3.22;2.20;;;;;;;23.22;nan;100629.25;4921352;29;20087;-73
2023/05/02 11:05:21;;;;;;;3.95;1.77;;;;;;;23.32;nan;100653.19;4923634;29;20142;-72
2023/05/02 11:07:46;;;;;;;2.20;1.70;;;;;;;23.34;nan;100645.59;4930689;29;20062;-72
2023/05/02 11:10:20;;;;;;;2.70;1.58;;;;;;;23.33;nan;100652.09;4923736;29;20340;-74
2023/05/02 11:12:48;;;;;;;2.80;1.67;;;;;;;23.31;nan;100619.34;4934093;29;20091;-73
2023/05/02 11:15:13;;;;;;;2.28;2.00;;;;;;;;;;4927700;29;20031;-73
2023/05/02 11:17:57;;;;;;;2.85;1.63;;;;;;;23.22;nan;100626.56;4918801;29;20028;-72
2023/05/02 11:20:23;;;;;;;5.20;1.85;;;;;;;23.29;nan;100643.03;4922206;29;20031;-72
2023/05/02 11:22:49;;;;;;;2.72;1.63;;;;;;;23.31;nan;100644.31;4927995;29;20016;-72
2023/05/02 11:25:34;;;;;;;2.75;1.38;;;;;;;23.40;nan;100636.34;4919946;29;20442;-71
2023/05/02 11:28:00;;;;;;;2.75;1.58;;;;;;;23.36;nan;100613.84;4912681;29;20422;-71
2023/05/02 11:30:36;;;;;;;5.72;1.80;;;;;;;23.34;nan;100633.00;4921126;29;20028;-71
2023/05/02 11:33:04;;;;;;;5.35;1.80;;;;;;;23.53;nan;100630.09;4920224;29;20035;-71
2023/05/02 11:35:30;;;;;;;2.77;1.60;;;;;;;23.53;nan;100613.97;4921379;29;20402;-73
2023/05/02 11:38:03;;;;;;;6.45;1.70;;;;;;;23.55;nan;100619.03;4922322;29;20039;-72
2023/05/02 11:40:30;;;;;;;4.03;1.70;;;;;;;23.48;nan;100640.19;4921803;29;20035;-71
2023/05/02 11:42:57;;;;;;;3.28;1.80;;;;;;;23.49;nan;100628.34;4922088;29;20036;-72
2023/05/02 11:45:35;;;;;;;4.43;1.70;;;;;;;23.50;nan;100691.75;4930634;29;20760;-73
2023/05/02 11:48:00;;;;;;;4.80;1.60;;;;;;;23.49;nan;100621.06;4919875;29;20032;-73
2023/05/02 11:50:29;;;;;;;4.07;2.25;;;;;;;23.51;nan;100612.69;4922010;29;20039;-73
2023/05/02 11:52:54;;;;;;;3.47;1.80;;;;;;;23.49;nan;100631.03;4924250;29;20019;-72
2023/05/02 11:55:20;;;;;;;2.28;1.80;;;;;;;23.45;nan;100550.22;4921706;29;20036;-73
2023/05/02 11:57:46;;;;;;;5.00;1.90;;;;;;;23.64;nan;100616.41;4924878;29;20067;-73
2023/05/02 12:00:12;;;;;;;3.17;1.70;;;;;;;23.72;nan;100611.06;4923153;29;20043;-72
2023/05/02 12:02:42;;;;;;;3.45;2.08;;;;;;;23.75;nan;100607.81;4922782;29;20549;-74
2023/05/02 12:05:10;;;;;;;5.20;2.05;;;;;;;23.81;nan;100613.06;4927520;29;20782;-73
2023/05/02 12:07:48;;;;;;;3.13;1.70;;;;;;;23.85;nan;100617.53;4937256;28;20028;-72